Time;durP1;ratioP1;P1;durP2;ratioP2;P2;SDS_P1;SDS_P2;PMS_P1;PMS_P2;Temp;Humidity;BMP_temperature;BMP_pressure;BME280_temperature;BME280_humidity;BME280_pressure;Samples;Min_cycle;Max_cycle;Signal;HPM_P1;HPM_P2
2022/07/10 00:01:52;;;;;;;7.90;1.20;;;16.30;79.30;;;;;;6213583;23;20001;-69
2022/07/10 00:04:18;;;;;;;4.78;0.80;;;16.40;79.70;;;;;;6213379;23;20012;-68
2022/07/10 00:06:46;;;;;;;3.85;1.00;;;16.30;79.30;;;;;;6203484;23;20477;-68
2022/07/10 00:09:13;;;;;;;4.97;1.88;;;16.30;79.40;;;;;;6213149;23;20012;-68
2022/07/10 00:11:40;;;;;;;7.43;1.00;;;16.30;79.20;;;;;;6203732;23;20016;-69
2022/07/10 00:14:06;;;;;;;4.65;1.30;;;16.40;79.30;;;;;;6203439;23;20009;-69
2022/07/10 00:16:31;;;;;;;5.72;1.20;;;16.40;79.90;;;;;;6212840;23;20012;-69
2022/07/10 00:18:57;;;;;;;3.45;0.82;;;16.40;79.70;;;;;;6201461;23;20091;-69
2022/07/10 00:21:23;;;;;;;3.95;0.85;;;16.40;80.20;;;;;;6203619;23;20009;-68
2022/07/10 00:23:49;;;;;;;4.93;1.23;;;16.40;79.90;;;;;;6202801;23;20055;-69
2022/07/10 00:26:15;;;;;;;3.78;0.73;;;16.40;80.80;;;;;;6202950;23;20055;-69
2022/07/10 00:28:40;;;;;;;3.80;0.77;;;16.40;80.40;;;;;;6212755;23;20019;-69
2022/07/10 00:31:06;;;;;;;5.20;0.90;;;16.40;80.30;;;;;;6203150;23;20008;-69
2022/07/10 00:33:32;;;;;;;3.05;0.77;;;16.40;80.70;;;;;;6202878;23;20013;-68
2022/07/10 00:35:58;;;;;;;5.20;0.80;;;16.30;79.10;;;;;;6203563;23;20016;-68
2022/07/10 00:38:24;;;;;;;4.25;1.20;;;16.30;79.90;;;;;;6212252;23;20079;-69
2022/07/10 00:40:50;;;;;;;4.32;0.95;;;16.30;80.00;;;;;;6203573;23;20394;-68
2022/07/10 00:43:16;;;;;;;2.05;0.75;;;16.30;80.00;;;;;;6202834;23;20011;-69
2022/07/10 00:45:42;;;;;;;4.63;0.77;;;16.40;79.50;;;;;;6203119;23;20027;-69
2022/07/10 00:48:09;;;;;;;6.03;1.20;;;16.30;80.20;;;;;;6212363;23;20038;-69
2022/07/10 00:50:35;;;;;;;3.80;0.73;;;16.30;80.20;;;;;;6212893;23;20020;-68
2022/07/10 00:53:02;;;;;;;5.20;1.20;;;16.30;79.80;;;;;;6202654;23;20032;-69
2022/07/10 00:55:29;;;;;;;4.47;0.95;;;16.30;81.20;;;;;;6202191;23;20103;-69
2022/07/10 00:57:55;;;;;;;5.90;0.80;;;16.30;80.10;;;;;;6200242;23;20004;-69
2022/07/10 01:00:22;;;;;;;5.50;0.85;;;16.30;80.00;;;;;;6202537;23;20008;-69
2022/07/10 01:02:47;;;;;;;6.03;1.85;;;16.30;79.70;;;;;;6202559;23;20748;-69
2022/07/10 01:05:13;;;;;;;5.88;0.80;;;16.30;79.60;;;;;;6212461;23;19997;-69
2022/07/10 01:07:39;;;;;;;5.82;0.70;;;16.30;79.20;;;;;;6201742;23;20086;-69
2022/07/10 01:10:05;;;;;;;3.72;1.00;;;16.30;79.10;;;;;;6203409;23;20414;-68
2022/07/10 01:12:31;;;;;;;4.18;0.93;;;16.30;79.30;;;;;;6212946;23;20012;-69
2022/07/10 01:14:58;;;;;;;4.45;0.90;;;16.30;79.40;;;;;;6202276;23;20103;-68
2022/07/10 01:17:25;;;;;;;3.83;0.80;;;16.30;78.50;;;;;;6202181;23;20021;-69
2022/07/10 01:19:51;;;;;;;4.85;0.75;;;16.30;78.30;;;;;;6200581;23;20017;-68
2022/07/10 01:22:16;;;;;;;4.20;0.95;;;16.30;78.20;;;;;;6211755;23;20070;-69
2022/07/10 01:24:42;;;;;;;4.97;1.08;;;16.30;77.40;;;;;;6212086;23;20004;-69
2022/07/10 01:27:08;;;;;;;3.78;0.77;;;16.30;77.60;;;;;;6201419;23;20019;-69
2022/07/10 01:29:36;;;;;;;5.13;0.88;;;16.20;77.20;;;;;;6202325;23;20051;-69
2022/07/10 01:32:02;;;;;;;4.13;0.80;;;16.30;77.60;;;;;;6202358;23;20039;-69
2022/07/10 01:34:28;;;;;;;2.90;0.85;;;16.30;77.60;;;;;;6212491;23;20072;-68
2022/07/10 01:36:54;;;;;;;2.42;1.23;;;16.30;77.10;;;;;;6201315;23;20473;-69
2022/07/10 01:39:20;;;;;;;4.10;0.80;;;16.30;77.00;;;;;;6212223;23;20040;-69
2022/07/10 01:41:46;;;;;;;2.75;0.70;;;16.30;77.00;;;;;;6211738;23;20659;-68
2022/07/10 01:44:11;;;;;;;3.35;0.70;;;16.30;76.90;;;;;;6211781;23;20091;-68
2022/07/10 01:46:48;;;;;;;4.95;1.02;;;16.30;76.90;;;;;;6199896;23;20013;-67
2022/07/10 01:49:14;;;;;;;3.83;0.88;;;16.20;76.50;;;;;;6201850;23;20027;-68
2022/07/10 01:51:40;;;;;;;5.22;0.70;;;16.30;77.10;;;;;;6202121;23;20022;-69
2022/07/10 01:54:06;;;;;;;3.65;0.70;;;16.20;76.70;;;;;;6211774;23;20077;-69
2022/07/10 01:56:32;;;;;;;3.45;0.73;;;16.20;77.00;;;;;;6201105;23;20009;-69
2022/07/10 01:59:00;;;;;;;2.80;0.50;;;16.20;77.40;;;;;;6211493;23;20008;-68
2022/07/10 02:01:25;;;;;;;1.90;0.63;;;16.20;77.80;;;;;;6211667;23;20434;-68
2022/07/10 02:06:35;;;;;;;5.22;1.25;;;16.20;77.50;;;;;;6201168;23;20078;-69
2022/07/10 02:09:01;;;;;;;1.75;0.43;;;16.10;77.90;;;;;;6201077;23;20419;-69
2022/07/10 02:11:27;;;;;;;4.07;0.90;;;16.10;78.30;;;;;;6201129;23;20031;-68
2022/07/10 02:13:53;;;;;;;2.13;0.70;;;16.10;78.20;;;;;;6201193;23;20036;-70
2022/07/10 02:16:19;;;;;;;4.10;0.93;;;16.10;78.30;;;;;;6201135;23;20052;-69
2022/07/10 02:18:45;;;;;;;0.90;0.40;;;16.10;78.60;;;;;;6200636;23;20016;-69
2022/07/10 02:21:10;;;;;;;2.47;0.63;;;16.10;79.00;;;;;;6201289;23;20013;-69
2022/07/10 02:23:36;;;;;;;4.80;0.60;;;16.10;78.90;;;;;;6201537;23;20496;-68
2022/07/10 02:26:02;;;;;;;4.70;0.73;;;16.10;78.70;;;;;;6211445;23;20103;-68
2022/07/10 02:28:29;;;;;;;1.67;0.70;;;16.10;79.10;;;;;;6200841;23;20008;-68
2022/07/10 02:30:55;;;;;;;4.05;0.65;;;16.00;79.00;;;;;;6201451;23;20038;-70
2022/07/10 02:33:20;;;;;;;3.90;0.68;;;16.00;79.20;;;;;;6211448;23;20009;-69
2022/07/10 02:35:46;;;;;;;3.95;0.80;;;16.00;79.80;;;;;;6200690;23;20019;-69
2022/07/10 02:38:12;;;;;;;4.22;0.60;;;15.90;79.30;;;;;;6200797;23;20009;-68
2022/07/10 02:40:41;;;;;;;3.35;0.80;;;15.90;79.80;;;;;;6199411;23;20402;-69
2022/07/10 02:43:06;;;;;;;2.25;0.52;;;15.80;79.70;;;;;;6200960;23;20058;-69
2022/07/10 02:45:32;;;;;;;2.83;0.90;;;15.80;80.00;;;;;;6201450;23;20462;-68
2022/07/10 02:47:58;;;;;;;2.80;0.50;;;15.80;80.70;;;;;;6201047;23;20451;-69
2022/07/10 02:50:24;;;;;;;4.47;0.75;;;15.80;80.90;;;;;;6210946;23;20093;-69
2022/07/10 02:52:49;;;;;;;3.38;0.80;;;15.70;81.10;;;;;;6201450;23;20012;-68
2022/07/10 02:55:15;;;;;;;2.50;0.80;;;15.70;81.20;;;;;;6200799;23;20015;-68
2022/07/10 02:57:41;;;;;;;2.65;0.60;;;15.70;81.40;;;;;;6210925;23;20121;-68
2022/07/10 03:00:07;;;;;;;1.77;0.50;;;15.70;81.10;;;;;;6210954;23;20009;-68
2022/07/10 03:02:33;;;;;;;6.05;0.60;;;15.70;80.90;;;;;;6201161;23;20343;-69
2022/07/10 03:04:59;;;;;;;3.15;0.85;;;15.70;81.00;;;;;;6210683;23;20008;-69
2022/07/10 03:07:24;;;;;;;4.93;1.05;;;15.70;80.90;;;;;;6201163;23;20017;-69
2022/07/10 03:09:50;;;;;;;4.78;1.00;;;15.70;81.10;;;;;;6202921;23;20016;-68
2022/07/10 03:12:16;;;;;;;4.05;0.60;;;15.70;80.90;;;;;;6212763;23;20004;-69
2022/07/10 03:14:41;;;;;;;3.28;0.82;;;15.70;81.00;;;;;;6202497;23;20732;-69
2022/07/10 03:17:07;;;;;;;4.20;0.65;;;15.80;80.80;;;;;;6201564;23;20819;-69
2022/07/10 03:19:33;;;;;;;2.22;0.63;;;15.70;81.00;;;;;;6202341;23;20008;-68
2022/07/10 03:21:59;;;;;;;6.80;0.93;;;15.70;80.90;;;;;;6202383;23;20113;-69
2022/07/10 03:24:25;;;;;;;4.00;0.63;;;15.80;81.20;;;;;;6202311;23;20001;-69
2022/07/10 03:26:51;;;;;;;4.15;0.60;;;15.70;81.20;;;;;;6202055;23;20012;-69
2022/07/10 03:29:16;;;;;;;1.90;0.73;;;15.70;81.30;;;;;;6202220;23;20036;-68
2022/07/10 03:31:42;;;;;;;4.18;0.80;;;15.70;81.60;;;;;;6203767;23;20009;-68
2022/07/10 03:34:08;;;;;;;3.70;0.45;;;15.80;81.60;;;;;;6202993;23;20529;-68
2022/07/10 03:36:34;;;;;;;2.47;0.50;;;15.80;81.60;;;;;;6212564;23;20009;-69
2022/07/10 03:38:59;;;;;;;6.93;0.73;;;15.70;81.00;;;;;;6203405;23;20013;-69
2022/07/10 03:41:25;;;;;;;1.63;0.45;;;15.70;81.70;;;;;;6203145;23;20005;-68
2022/07/10 03:43:51;;;;;;;7.35;0.70;;;15.70;81.50;;;;;;6203057;23;20084;-69
2022/07/10 03:46:17;;;;;;;2.75;0.55;;;15.80;81.60;;;;;;6201112;23;20012;-68
2022/07/10 03:48:42;;;;;;;3.70;0.82;;;15.70;81.40;;;;;;6211631;23;20022;-70
2022/07/10 03:51:08;;;;;;;1.90;0.35;;;15.70;81.30;;;;;;6200379;23;20019;-68
2022/07/10 03:53:34;;;;;;;5.93;1.08;;;15.70;81.60;;;;;;6202074;23;20016;-69
2022/07/10 03:56:00;;;;;;;4.47;0.85;;;15.60;81.80;;;;;;6201977;23;20720;-68
2022/07/10 03:58:26;;;;;;;2.72;0.70;;;15.60;82.10;;;;;;6201551;23;20012;-71
2022/07/10 04:00:52;;;;;;;4.93;1.00;;;15.60;82.00;;;;;;6202186;23;20601;-69
2022/07/10 04:03:18;;;;;;;3.80;0.82;;;15.60;82.20;;;;;;6202404;23;20008;-68
2022/07/10 04:05:43;;;;;;;2.05;0.60;;;15.60;82.40;;;;;;6202079;23;20012;-69
2022/07/10 04:08:09;;;;;;;4.03;0.80;;;15.60;82.50;;;;;;6202311;23;20066;-69
2022/07/10 04:10:36;;;;;;;3.88;0.70;;;15.70;82.70;;;;;;6203139;23;20009;-68
2022/07/10 04:13:01;;;;;;;3.28;0.60;;;15.70;83.00;;;;;;6202765;23;20009;-68
2022/07/10 04:15:27;;;;;;;3.28;0.60;;;15.70;83.10;;;;;;6203547;23;20466;-69
2022/07/10 04:17:53;;;;;;;5.22;1.13;;;15.70;82.90;;;;;;6202593;23;20319;-69
2022/07/10 04:20:20;;;;;;;4.00;0.80;;;15.70;83.10;;;;;;6203187;23;20005;-68
2022/07/10 04:22:46;;;;;;;4.38;0.63;;;15.70;83.30;;;;;;6203474;22;20312;-69
2022/07/10 04:25:12;;;;;;;3.70;0.73;;;15.70;82.90;;;;;;6213945;23;20008;-68
2022/07/10 04:27:39;;;;;;;2.75;0.90;;;15.70;83.00;;;;;;6202861;23;20059;-69
2022/07/10 04:30:06;;;;;;;1.63;0.50;;;15.70;83.00;;;;;;6203675;23;20032;-69
2022/07/10 04:32:32;;;;;;;2.33;0.52;;;15.70;83.10;;;;;;6203537;23;20032;-69
2022/07/10 04:34:58;;;;;;;3.13;0.50;;;15.70;83.20;;;;;;6203247;23;20382;-69
2022/07/10 04:37:24;;;;;;;5.88;0.75;;;15.80;83.40;;;;;;6202303;23;20008;-69
2022/07/10 04:39:50;;;;;;;3.42;0.70;;;15.90;83.20;;;;;;6202910;23;20008;-69
2022/07/10 04:42:15;;;;;;;6.20;0.50;;;15.90;83.10;;;;;;6203092;23;20072;-68
2022/07/10 04:44:41;;;;;;;2.75;0.60;;;16.00;83.00;;;;;;6203379;23;20599;-68
2022/07/10 04:47:07;;;;;;;1.42;0.70;;;16.00;82.80;;;;;;6202513;23;20013;-69
2022/07/10 04:49:34;;;;;;;2.22;0.80;;;16.00;82.90;;;;;;6202269;23;20017;-68
2022/07/10 04:52:00;;;;;;;2.28;1.05;;;16.10;82.90;;;;;;6203067;23;20048;-69
2022/07/10 04:54:26;;;;;;;2.28;1.27;;;16.10;82.30;;;;;;6202922;23;20008;-68
2022/07/10 04:56:51;;;;;;;2.60;0.75;;;16.10;82.70;;;;;;6202462;23;20162;-69
2022/07/10 04:59:17;;;;;;;3.95;0.80;;;16.20;81.90;;;;;;6203340;23;20021;-69
2022/07/10 05:01:43;;;;;;;7.28;1.20;;;16.20;82.10;;;;;;6212417;23;20001;-69
2022/07/10 05:04:09;;;;;;;5.97;0.90;;;16.30;82.30;;;;;;6212788;23;20001;-69
2022/07/10 05:06:35;;;;;;;3.17;0.90;;;16.30;82.50;;;;;;6211774;23;20750;-69
2022/07/10 05:09:01;;;;;;;3.53;0.85;;;16.30;82.30;;;;;;6202679;23;20032;-69
2022/07/10 05:11:27;;;;;;;3.17;1.20;;;16.40;81.90;;;;;;6202303;23;20095;-69
2022/07/10 05:13:53;;;;;;;5.97;0.90;;;16.40;81.60;;;;;;6202772;23;20399;-68
2022/07/10 05:16:19;;;;;;;1.83;0.70;;;16.50;81.60;;;;;;6212667;23;20081;-69
2022/07/10 05:18:45;;;;;;;2.15;0.70;;;16.40;81.40;;;;;;6211980;23;20063;-68
2022/07/10 05:21:11;;;;;;;2.95;0.68;;;16.50;81.20;;;;;;6202085;23;20001;-69
2022/07/10 05:23:38;;;;;;;5.47;0.77;;;16.50;81.00;;;;;;6202077;23;20012;-69
2022/07/10 05:26:05;;;;;;;2.35;0.60;;;16.60;81.30;;;;;;6202124;23;20019;-69
2022/07/10 05:28:31;;;;;;;1.88;0.55;;;16.60;80.60;;;;;;6202125;23;20035;-69
2022/07/10 05:30:57;;;;;;;2.08;0.60;;;16.60;80.70;;;;;;6201856;23;20078;-68
2022/07/10 05:33:22;;;;;;;4.50;0.70;;;16.60;80.60;;;;;;6211863;23;20009;-68
2022/07/10 05:35:48;;;;;;;4.70;1.00;;;16.70;80.40;;;;;;6202340;23;20019;-68
2022/07/10 05:38:14;;;;;;;2.05;0.50;;;16.70;79.90;;;;;;6199973;23;20086;-69
2022/07/10 05:40:40;;;;;;;3.05;0.88;;;16.70;79.80;;;;;;6211587;23;20074;-69
2022/07/10 05:43:06;;;;;;;4.85;0.90;;;16.70;79.90;;;;;;6202233;23;20079;-69
2022/07/10 05:45:32;;;;;;;3.63;1.13;;;16.80;79.70;;;;;;6201984;23;20453;-68
2022/07/10 05:47:57;;;;;;;4.20;1.10;;;16.80;79.70;;;;;;6201276;23;20040;-68
2022/07/10 05:50:23;;;;;;;2.63;1.00;;;16.90;79.60;;;;;;6201535;23;20009;-68
2022/07/10 05:52:49;;;;;;;4.05;0.95;;;17.00;78.90;;;;;;6201705;23;20015;-68
2022/07/10 05:55:15;;;;;;;1.92;0.88;;;17.00;78.80;;;;;;6211611;23;20005;-68
2022/07/10 05:57:41;;;;;;;5.28;1.20;;;17.00;78.80;;;;;;6211060;23;20004;-69
2022/07/10 06:00:08;;;;;;;4.53;0.90;;;17.10;78.40;;;;;;6202363;23;20008;-69
2022/07/10 06:02:40;;;;;;;4.88;0.70;;;17.10;77.80;;;;;;6201827;23;20276;-70
2022/07/10 06:05:07;;;;;;;5.40;0.80;;;17.10;77.00;;;;;;6201949;23;20348;-68
2022/07/10 06:07:33;;;;;;;4.60;1.13;;;17.10;77.60;;;;;;6201275;23;20074;-68
2022/07/10 06:09:58;;;;;;;6.57;0.90;;;17.10;77.80;;;;;;6202279;23;20401;-68
2022/07/10 06:12:24;;;;;;;4.97;0.98;;;17.10;77.70;;;;;;6201641;23;20021;-69
2022/07/10 06:14:50;;;;;;;2.60;0.90;;;17.20;76.40;;;;;;6202096;23;20027;-68
2022/07/10 06:17:16;;;;;;;7.97;1.10;;;17.20;76.90;;;;;;6201306;23;20723;-70
2022/07/10 06:19:42;;;;;;;5.13;1.33;;;17.20;76.50;;;;;;6211887;23;20007;-69
2022/07/10 06:24:52;;;;;;;5.05;1.33;;;17.40;76.00;;;;;;6201406;23;20016;-69
2022/07/10 06:27:17;;;;;;;5.20;1.33;;;17.50;75.00;;;;;;6200580;23;20019;-69
2022/07/10 06:29:43;;;;;;;3.28;0.70;;;17.50;74.60;;;;;;6200792;23;20016;-68
2022/07/10 06:32:09;;;;;;;5.78;1.27;;;17.50;74.40;;;;;;6200830;23;20143;-69
2022/07/10 06:34:35;;;;;;;4.90;1.13;;;17.50;74.90;;;;;;6200494;23;20118;-68
2022/07/10 06:37:01;;;;;;;4.18;1.20;;;17.60;74.40;;;;;;6210733;23;20004;-73
2022/07/10 06:39:33;;;;;;;3.53;0.95;;;17.60;74.90;;;;;;6201134;23;20005;-71
2022/07/10 06:42:00;;;;;;;7.53;0.82;;;17.60;74.80;;;;;;6211592;23;20063;-69
2022/07/10 06:44:27;;;;;;;5.85;1.35;;;17.70;73.50;;;;;;6200070;23;20554;-69
2022/07/10 06:49:37;;;;;;;5.03;1.02;;;17.80;72.90;;;;;;6211137;23;20055;-72
2022/07/10 06:52:03;;;;;;;6.22;1.25;;;17.90;71.90;;;;;;6210398;23;20795;-71
2022/07/10 06:54:29;;;;;;;3.67;1.02;;;18.00;72.20;;;;;;6201317;23;20016;-71
2022/07/10 06:56:54;;;;;;;9.30;1.40;;;18.10;71.40;;;;;;6200552;23;20012;-71
2022/07/10 06:59:20;;;;;;;7.95;1.58;;;18.10;72.00;;;;;;6201535;23;20008;-73
2022/07/10 07:01:46;;;;;;;6.03;1.23;;;18.20;71.20;;;;;;6210576;23;20463;-71
2022/07/10 07:04:12;;;;;;;7.13;1.83;;;18.30;71.40;;;;;;6199173;23;20667;-71
2022/07/10 07:06:37;;;;;;;4.43;1.10;;;18.30;70.10;;;;;;6201765;23;20446;-71
2022/07/10 07:09:03;;;;;;;4.00;1.20;;;18.40;70.30;;;;;;6210862;23;20012;-72
2022/07/10 07:11:29;;;;;;;5.07;1.10;;;18.50;70.40;;;;;;6200773;23;20103;-71
2022/07/10 07:13:54;;;;;;;7.13;1.55;;;18.50;70.00;;;;;;6201072;23;20023;-72
2022/07/10 07:16:27;;;;;;;5.78;1.10;;;18.50;68.60;;;;;;6200164;23;20116;-71
2022/07/10 07:18:55;;;;;;;4.80;1.10;;;18.50;68.80;;;;;;6201339;23;20667;-71
2022/07/10 07:24:05;;;;;;;6.95;1.10;;;18.60;69.50;;;;;;6201885;23;20053;-72
2022/07/10 07:26:31;;;;;;;4.38;1.60;;;18.50;68.70;;;;;;6211979;23;20012;-73
2022/07/10 07:28:57;;;;;;;6.03;1.65;;;18.40;71.00;;;;;;6202502;23;20013;-73
2022/07/10 07:31:22;;;;;;;4.40;1.63;;;18.30;70.60;;;;;;6202255;23;20075;-72
2022/07/10 07:33:48;;;;;;;7.32;1.80;;;18.20;70.00;;;;;;6202180;23;20009;-72
2022/07/10 07:36:14;;;;;;;7.47;1.70;;;18.10;70.20;;;;;;6201939;23;20017;-72
2022/07/10 07:38:40;;;;;;;4.38;0.90;;;18.10;69.80;;;;;;6201920;23;20833;-72
2022/07/10 07:41:05;;;;;;;5.50;1.05;;;18.10;69.30;;;;;;6199920;23;20402;-72
2022/07/10 07:43:31;;;;;;;4.40;1.02;;;18.30;70.10;;;;;;6211862;23;20088;-72
2022/07/10 07:45:57;;;;;;;9.43;1.70;;;18.50;69.50;;;;;;6201895;23;20019;-73
2022/07/10 07:48:22;;;;;;;7.63;1.27;;;18.50;68.20;;;;;;6200289;23;20039;-72
2022/07/10 07:50:48;;;;;;;3.53;0.95;;;18.50;70.10;;;;;;6199534;23;20009;-72
2022/07/10 07:53:14;;;;;;;3.38;0.90;;;18.60;69.10;;;;;;6203029;23;20004;-73
2022/07/10 07:55:40;;;;;;;5.40;1.10;;;18.70;68.70;;;;;;6205490;23;20071;-72
2022/07/10 07:58:05;;;;;;;8.20;1.52;;;18.80;68.90;;;;;;6204250;23;20378;-72
2022/07/10 08:00:32;;;;;;;5.00;1.00;;;18.80;66.80;;;;;;6204119;23;20015;-72
2022/07/10 08:03:00;;;;;;;7.70;1.25;;;18.80;65.60;;;;;;6204105;23;20012;-72
2022/07/10 08:05:26;;;;;;;3.70;1.10;;;18.70;65.80;;;;;;6205071;23;20005;-72
2022/07/10 08:08:06;;;;;;;5.07;1.02;;;18.60;67.50;;;;;;6204509;23;20047;-72
2022/07/10 08:10:32;;;;;;;8.45;1.38;;;18.60;67.00;;;;;;6204503;23;20055;-72
2022/07/10 08:12:58;;;;;;;3.00;0.90;;;18.70;65.70;;;;;;6204405;23;20008;-73
2022/07/10 08:15:23;;;;;;;6.10;1.40;;;18.70;66.10;;;;;;6203801;23;20075;-73
2022/07/10 08:17:51;;;;;;;4.13;1.40;;;18.80;66.00;;;;;;6202888;23;20017;-74
2022/07/10 08:20:17;;;;;;;5.05;1.30;;;18.80;65.80;;;;;;6204013;23;20008;-73
2022/07/10 08:22:43;;;;;;;8.35;2.60;;;18.80;65.80;;;;;;6211968;23;20008;-72
2022/07/10 08:25:10;;;;;;;5.88;1.60;;;18.60;66.90;;;;;;6214304;23;20004;-72
2022/07/10 08:27:36;;;;;;;6.38;2.10;;;18.50;65.80;;;;;;6212852;23;20008;-72
2022/07/10 08:30:02;;;;;;;7.03;1.50;;;18.40;66.00;;;;;;6204538;23;20017;-71
2022/07/10 08:32:28;;;;;;;4.72;1.60;;;18.40;66.10;;;;;;6213885;23;20016;-73
2022/07/10 08:34:54;;;;;;;9.23;1.40;;;18.60;66.60;;;;;;6214467;23;20017;-73
2022/07/10 08:37:20;;;;;;;6.22;1.52;;;18.80;66.40;;;;;;6214609;23;20123;-73
2022/07/10 08:39:46;;;;;;;5.63;1.67;;;18.90;66.40;;;;;;6203993;23;20008;-74
2022/07/10 08:42:15;;;;;;;11.20;3.33;;;19.00;65.20;;;;;;6204927;23;20012;-73
2022/07/10 08:44:41;;;;;;;7.45;2.00;;;19.10;65.40;;;;;;6204916;23;20062;-73
2022/07/10 08:47:06;;;;;;;7.70;2.30;;;19.20;63.30;;;;;;6202387;23;20016;-74
2022/07/10 08:49:35;;;;;;;8.95;2.45;;;19.30;64.00;;;;;;6204121;23;20008;-75
2022/07/10 08:52:09;;;;;;;9.15;1.92;;;19.20;64.10;;;;;;6214955;23;20035;-73
2022/07/10 08:54:37;;;;;;;6.93;1.35;;;19.20;64.50;;;;;;6214421;23;20016;-75
2022/07/10 08:57:03;;;;;;;3.63;1.20;;;19.00;63.80;;;;;;6204345;23;20013;-73
2022/07/10 08:59:29;;;;;;;4.88;1.55;;;18.90;63.80;;;;;;6203779;23;20004;-76
2022/07/10 09:01:56;;;;;;;6.97;1.40;;;18.90;64.20;;;;;;6204082;23;20084;-75
2022/07/10 09:04:26;;;;;;;4.45;1.25;;;18.80;65.40;;;;;;6203101;23;20012;-75
2022/07/10 09:06:53;;;;;;;4.82;1.20;;;18.90;64.70;;;;;;6202714;23;20205;-75
2022/07/10 09:09:19;;;;;;;7.53;1.48;;;19.00;65.30;;;;;;6202122;23;20019;-74
2022/07/10 09:11:46;;;;;;;8.15;1.38;;;19.10;64.80;;;;;;6203662;23;20095;-74
2022/07/10 09:14:15;;;;;;;6.50;1.67;;;19.20;65.20;;;;;;6205464;23;20395;-74
2022/07/10 09:16:44;;;;;;;6.80;2.20;;;19.20;64.60;;;;;;6214531;23;20020;-74
2022/07/10 09:19:16;;;;;;;6.72;1.70;;;19.40;64.00;;;;;;6215155;23;20644;-74
2022/07/10 09:21:42;;;;;;;7.68;2.30;;;19.40;64.30;;;;;;6205375;23;20084;-73
2022/07/10 09:24:08;;;;;;;7.60;1.88;;;19.20;64.60;;;;;;6204740;23;20019;-77
2022/07/10 09:26:38;;;;;;;8.05;1.48;;;19.10;65.40;;;;;;6204489;23;20012;-74
2022/07/10 09:29:13;;;;;;;2.65;1.23;;;19.10;65.50;;;;;;6215082;23;20015;-74
2022/07/10 09:31:55;;;;;;;6.03;1.50;;;19.10;65.60;;;;;;6204229;23;20155;-73
2022/07/10 09:34:44;;;;;;;6.35;1.40;;;19.20;66.00;;;;;;6215022;23;20012;-76
2022/07/10 09:37:27;;;;;;;6.20;1.58;;;19.30;65.30;;;;;;6204715;23;20012;-74
2022/07/10 09:39:58;;;;;;;6.32;1.63;;;19.40;66.00;;;;;;6204387;23;20184;-74
2022/07/10 09:42:34;;;;;;;8.65;3.10;;;19.60;64.40;;;;;;6205645;23;20012;-73
2022/07/10 09:45:12;;;;;;;10.75;4.85;;;19.60;64.20;;;;;;6205573;23;20308;-74
2022/07/10 09:47:39;;;;;;;13.23;4.65;;;19.60;63.20;;;;;;6212560;23;20012;-74
2022/07/10 09:50:25;;;;;;;8.60;2.60;;;19.70;63.30;;;;;;6212241;23;20354;-73
2022/07/10 09:53:02;;;;;;;7.95;2.35;;;19.80;60.20;;;;;;6202518;23;20095;-74
2022/07/10 09:55:32;;;;;;;6.35;2.58;;;19.90;60.90;;;;;;6213203;23;20008;-74
2022/07/10 09:58:06;;;;;;;7.57;1.38;;;20.00;61.30;;;;;;6202580;23;20016;-74
2022/07/10 10:00:34;;;;;;;8.32;2.40;;;20.00;60.20;;;;;;6203756;23;20008;-74
2022/07/10 10:03:03;;;;;;;9.40;2.30;;;20.00;62.20;;;;;;6204112;23;20005;-74
2022/07/10 10:05:35;;;;;;;7.03;1.52;;;20.00;62.20;;;;;;6212601;23;20016;-73
2022/07/10 10:08:24;;;;;;;4.63;1.45;;;20.00;61.90;;;;;;6202992;23;20009;-71
2022/07/10 10:10:51;;;;;;;6.65;1.33;;;19.70;62.40;;;;;;6203845;23;20449;-74
2022/07/10 10:13:19;;;;;;;9.52;1.45;;;19.60;61.80;;;;;;6190989;23;20040;-77
2022/07/10 10:15:47;;;;;;;10.25;1.48;;;19.60;63.10;;;;;;6202481;23;20023;-72
2022/07/10 10:18:15;;;;;;;7.68;1.73;;;19.70;62.70;;;;;;6202107;23;20019;-74
2022/07/10 10:20:45;;;;;;;6.57;1.30;;;19.80;63.80;;;;;;6201986;23;20072;-74
2022/07/10 10:23:15;;;;;;;10.52;2.10;;;19.90;62.90;;;;;;6202701;23;20001;-70
2022/07/10 10:25:41;;;;;;;9.02;1.65;;;20.00;61.30;;;;;;6212992;23;20001;-70
2022/07/10 10:28:10;;;;;;;4.72;1.30;;;20.10;62.00;;;;;;6201864;23;20015;-70
2022/07/10 10:30:41;;;;;;;6.20;1.55;;;20.20;62.40;;;;;;6202402;23;20024;-70
2022/07/10 10:33:42;;;;;;;9.57;2.13;;;20.20;61.60;;;;;;6212593;23;20011;-71
2022/07/10 10:36:13;;;;;;;7.57;2.80;;;20.20;63.00;;;;;;6204091;23;20012;-70
2022/07/10 10:38:47;;;;;;;10.70;3.85;;;20.10;62.30;;;;;;6211619;23;20126;-71
2022/07/10 10:41:27;;;;;;;9.38;2.50;;;20.00;62.10;;;;;;6202284;23;20012;-71
2022/07/10 10:44:13;;;;;;;7.47;1.67;;;19.90;61.40;;;;;;6199548;23;20450;-71
2022/07/10 10:46:54;;;;;;;5.30;1.30;;;19.80;61.20;;;;;;6201592;23;20020;-70
2022/07/10 10:49:24;;;;;;;7.32;2.05;;;19.90;61.50;;;;;;6201702;23;20738;-71
2022/07/10 10:52:08;;;;;;;8.23;1.70;;;20.00;62.40;;;;;;6202095;23;20012;-71
2022/07/10 10:55:04;;;;;;;9.50;2.90;;;20.10;59.80;;;;;;6202042;23;20727;-72
2022/07/10 10:57:47;;;;;;;8.35;2.10;;;20.20;62.00;;;;;;6208223;22;20013;-90
2022/07/10 11:00:47;;;;;;;6.80;2.53;;;20.20;60.40;;;;;;6209975;23;20056;-91
2022/07/10 11:04:19;;;;;;;5.50;1.48;;;20.40;61.80;;;;;;6211581;23;20012;-90
2022/07/10 11:11:45;;;;;;;8.10;2.72;;;20.70;60.80;;;;;;6178216;23;20008;-91
2022/07/10 11:14:12;;;;;;;5.53;1.40;;;20.70;58.90;;;;;;6211615;23;20009;-90
2022/07/10 11:16:47;;;;;;;9.75;1.90;;;20.50;58.00;;;;;;6212173;23;20062;-90
2022/07/10 11:19:22;;;;;;;10.65;2.30;;;20.40;58.20;;;;;;6211914;23;20023;-91
2022/07/10 11:21:54;;;;;;;5.32;1.23;;;20.20;58.20;;;;;;6210791;23;20000;-91
2022/07/10 11:24:19;;;;;;;4.18;1.13;;;20.30;58.40;;;;;;6207946;23;20004;-91
2022/07/10 11:27:04;;;;;;;8.68;2.10;;;20.40;58.60;;;;;;6231360;23;20043;-90
2022/07/10 11:29:37;;;;;;;7.10;1.92;;;20.50;58.40;;;;;;6182709;23;20017;-90
2022/07/10 11:32:04;;;;;;;5.65;1.95;;;20.70;56.80;;;;;;6214559;23;20432;-90
2022/07/10 11:34:36;;;;;;;7.72;1.67;;;20.70;58.30;;;;;;6214052;23;20039;-92
2022/07/10 11:37:13;;;;;;;8.07;1.77;;;20.70;58.30;;;;;;6213405;23;20005;-91
2022/07/10 11:39:38;;;;;;;4.88;1.75;;;20.80;58.50;;;;;;6216081;23;20036;-91
2022/07/10 11:42:04;;;;;;;5.32;1.17;;;20.80;58.10;;;;;;6213557;23;20279;-93
2022/07/10 11:44:31;;;;;;;6.25;1.45;;;20.70;58.00;;;;;;6216113;23;20314;-91
2022/07/10 11:46:58;;;;;;;6.97;1.70;;;20.70;57.40;;;;;;6189117;23;20043;-92
2022/07/10 11:49:24;;;;;;;6.68;1.70;;;20.80;58.50;;;;;;6200957;23;20030;-74
2022/07/10 11:51:50;;;;;;;6.40;1.02;;;20.70;57.70;;;;;;6199234;23;20091;-74
2022/07/10 11:54:18;;;;;;;4.25;1.25;;;20.70;56.10;;;;;;6199577;23;20008;-73
2022/07/10 11:56:52;;;;;;;8.93;1.65;;;20.60;58.10;;;;;;6197780;23;20044;-74
2022/07/10 11:59:23;;;;;;;6.70;1.50;;;20.80;57.80;;;;;;6209038;23;20008;-70
2022/07/10 12:01:51;;;;;;;4.68;1.08;;;20.90;57.80;;;;;;6209450;23;20007;-71
2022/07/10 12:04:23;;;;;;;5.15;1.38;;;21.00;58.10;;;;;;6199497;23;20039;-71
2022/07/10 12:06:51;;;;;;;2.58;0.80;;;21.00;57.60;;;;;;6198765;23;20019;-71
2022/07/10 12:09:19;;;;;;;3.25;1.08;;;21.00;56.40;;;;;;6199660;23;20008;-71
2022/07/10 12:12:02;;;;;;;6.15;1.25;;;21.00;55.30;;;;;;6198492;23;20737;-71
2022/07/10 12:14:28;;;;;;;5.65;1.20;;;21.00;55.70;;;;;;6199656;23;20854;-72
2022/07/10 12:16:55;;;;;;;4.03;1.50;;;21.10;55.40;;;;;;6210021;23;20004;-71
2022/07/10 12:19:27;;;;;;;8.63;1.40;;;21.20;55.30;;;;;;6206724;23;20005;-72
2022/07/10 12:21:54;;;;;;;10.25;2.30;;;21.20;55.70;;;;;;6199303;23;20061;-72
2022/07/10 12:24:21;;;;;;;7.55;3.67;;;21.20;55.40;;;;;;6198565;23;20698;-72
2022/07/10 12:26:48;;;;;;;10.75;3.38;;;21.00;55.10;;;;;;6198270;23;20012;-72
2022/07/10 12:29:24;;;;;;;12.35;2.38;;;21.00;56.00;;;;;;6208719;23;20007;-71
2022/07/10 12:31:52;;;;;;;21.70;3.28;;;21.00;56.20;;;;;;6199016;23;20126;-71
2022/07/10 12:34:18;;;;;;;3.95;1.00;;;21.10;56.30;;;;;;6198866;23;20013;-72
2022/07/10 12:36:50;;;;;;;11.93;2.13;;;21.10;56.20;;;;;;6197056;23;20517;-71
2022/07/10 12:39:21;;;;;;;10.48;2.10;;;21.10;57.50;;;;;;6198710;23;20012;-71
2022/07/10 12:41:54;;;;;;;9.48;1.42;;;21.20;56.50;;;;;;6208375;23;20084;-70
2022/07/10 12:44:40;;;;;;;2.88;1.05;;;21.30;56.20;;;;;;6197525;23;20019;-70
2022/07/10 12:47:11;;;;;;;9.07;1.77;;;21.20;54.60;;;;;;6196872;23;20112;-71
2022/07/10 12:49:56;;;;;;;4.88;1.33;;;21.10;55.30;;;;;;6198584;23;20027;-71
2022/07/10 12:52:29;;;;;;;5.63;1.50;;;21.20;54.70;;;;;;6198732;23;20106;-72
2022/07/10 12:55:19;;;;;;;6.32;1.60;;;21.30;55.00;;;;;;6195744;23;20204;-73
2022/07/10 12:57:58;;;;;;;5.28;1.30;;;21.40;53.80;;;;;;6197851;23;20012;-72
2022/07/10 13:00:25;;;;;;;6.38;1.60;;;21.50;54.80;;;;;;6197065;23;20013;-73
2022/07/10 13:03:02;;;;;;;3.22;0.88;;;21.50;54.60;;;;;;6206741;23;20011;-73
2022/07/10 13:05:38;;;;;;;4.55;1.02;;;21.60;54.70;;;;;;6198262;23;20012;-72
2022/07/10 13:08:14;;;;;;;7.35;1.77;;;21.60;53.10;;;;;;6198633;23;20008;-69